sensor_id;sensor_type;location;lat;lon;timestamp;pressure;altitude;pressure_sealevel;temperature;humidity
19286;BME280;9776;50.798;6.430;2023-03-14T00:00:26;97735.59;;;12.34;59.04
19286;BME280;9776;50.798;6.430;2023-03-14T00:02:53;97744.78;;;12.32;58.93
19286;BME280;9776;50.798;6.430;2023-03-14T00:05:20;97740.28;;;12.32;59.11
19286;BME280;9776;50.798;6.430;2023-03-14T00:07:46;97759.03;;;12.31;59.29
19286;BME280;9776;50.798;6.430;2023-03-14T00:10:15;97770.03;;;12.28;59.32
19286;BME280;9776;50.798;6.430;2023-03-14T00:12:46;97766.38;;;12.29;59.22
19286;BME280;9776;50.798;6.430;2023-03-14T00:15:16;97795.25;;;12.30;59.27
19286;BME280;9776;50.798;6.430;2023-03-14T00:17:43;97806.63;;;12.31;59.03
19286;BME280;9776;50.798;6.430;2023-03-14T00:20:12;97815.00;;;12.28;59.08
19286;BME280;9776;50.798;6.430;2023-03-14T00:22:39;97815.81;;;12.28;59.32
19286;BME280;9776;50.798;6.430;2023-03-14T00:25:07;97815.25;;;12.26;59.18
19286;BME280;9776;50.798;6.430;2023-03-14T00:27:36;97829.84;;;12.29;59.52
19286;BME280;9776;50.798;6.430;2023-03-14T00:30:04;97825.81;;;12.26;59.38
19286;BME280;9776;50.798;6.430;2023-03-14T00:32:31;97825.94;;;12.31;59.77
19286;BME280;9776;50.798;6.430;2023-03-14T00:34:57;97840.00;;;12.32;59.84
19286;BME280;9776;50.798;6.430;2023-03-14T00:37:25;97842.41;;;12.33;60.27
19286;BME280;9776;50.798;6.430;2023-03-14T00:39:53;97857.25;;;12.34;60.40
19286;BME280;9776;50.798;6.430;2023-03-14T00:42:20;97866.22;;;12.33;60.75
19286;BME280;9776;50.798;6.430;2023-03-14T00:44:48;97896.97;;;12.28;61.42
19286;BME280;9776;50.798;6.430;2023-03-14T00:47:14;97896.38;;;12.08;62.14
19286;BME280;9776;50.798;6.430;2023-03-14T00:49:41;97906.91;;;11.89;62.78
19286;BME280;9776;50.798;6.430;2023-03-14T00:52:08;97893.03;;;11.69;63.44
19286;BME280;9776;50.798;6.430;2023-03-14T00:54:35;97889.44;;;11.57;63.99
19286;BME280;9776;50.798;6.430;2023-03-14T00:57:02;97889.50;;;11.51;64.28
19286;BME280;9776;50.798;6.430;2023-03-14T00:59:28;97891.53;;;11.49;64.49
19286;BME280;9776;50.798;6.430;2023-03-14T01:01:56;97887.72;;;11.45;64.70
19286;BME280;9776;50.798;6.430;2023-03-14T01:04:23;97870.13;;;11.32;65.57
19286;BME280;9776;50.798;6.430;2023-03-14T01:06:50;97858.59;;;11.26;65.88
19286;BME280;9776;50.798;6.430;2023-03-14T01:09:17;97861.22;;;11.26;65.95
19286;BME280;9776;50.798;6.430;2023-03-14T01:11:44;97850.66;;;11.26;65.88
19286;BME280;9776;50.798;6.430;2023-03-14T01:14:12;97854.13;;;11.27;65.98
19286;BME280;9776;50.798;6.430;2023-03-14T01:16:38;97856.19;;;11.25;66.06
19286;BME280;9776;50.798;6.430;2023-03-14T01:19:06;97845.81;;;11.23;66.11
19286;BME280;9776;50.798;6.430;2023-03-14T01:21:34;97848.88;;;11.20;66.21
19286;BME280;9776;50.798;6.430;2023-03-14T01:24:04;97832.88;;;11.15;66.43
19286;BME280;9776;50.798;6.430;2023-03-14T01:26:32;97826.22;;;11.06;66.47
19286;BME280;9776;50.798;6.430;2023-03-14T01:28:59;97826.06;;;11.01;66.59
19286;BME280;9776;50.798;6.430;2023-03-14T01:31:26;97826.69;;;10.97;66.85
19286;BME280;9776;50.798;6.430;2023-03-14T01:33:53;97823.06;;;10.91;66.87
19286;BME280;9776;50.798;6.430;2023-03-14T01:36:21;97810.53;;;10.87;66.78
19286;BME280;9776;50.798;6.430;2023-03-14T01:38:48;97799.00;;;10.81;67.05
19286;BME280;9776;50.798;6.430;2023-03-14T01:41:16;97805.13;;;10.75;67.46
19286;BME280;9776;50.798;6.430;2023-03-14T01:43:44;97807.59;;;10.70;67.45
19286;BME280;9776;50.798;6.430;2023-03-14T01:46:24;97804.59;;;10.60;67.76
19286;BME280;9776;50.798;6.430;2023-03-14T01:48:55;97806.03;;;10.56;67.84
19286;BME280;9776;50.798;6.430;2023-03-14T01:51:29;97794.50;;;10.50;68.23
19286;BME280;9776;50.798;6.430;2023-03-14T01:54:02;97793.31;;;10.46;68.20
19286;BME280;9776;50.798;6.430;2023-03-14T01:56:31;97806.09;;;10.43;68.47
19286;BME280;9776;50.798;6.430;2023-03-14T01:58:58;97813.59;;;10.39;68.56
19286;BME280;9776;50.798;6.430;2023-03-14T02:01:28;97798.41;;;10.41;68.54
19286;BME280;9776;50.798;6.430;2023-03-14T02:03:56;97792.50;;;10.39;68.75
19286;BME280;9776;50.798;6.430;2023-03-14T02:06:30;97805.69;;;10.39;68.66
19286;BME280;9776;50.798;6.430;2023-03-14T02:09:00;97795.97;;;10.40;68.62
19286;BME280;9776;50.798;6.430;2023-03-14T02:11:28;97799.22;;;10.42;68.62
19286;BME280;9776;50.798;6.430;2023-03-14T02:13:56;97805.50;;;10.41;68.69
19286;BME280;9776;50.798;6.430;2023-03-14T02:16:24;97797.59;;;10.41;68.74
19286;BME280;9776;50.798;6.430;2023-03-14T02:18:51;97792.09;;;10.42;68.73
19286;BME280;9776;50.798;6.430;2023-03-14T02:21:22;97798.19;;;10.43;68.60
19286;BME280;9776;50.798;6.430;2023-03-14T02:23:59;97797.75;;;10.46;68.48
19286;BME280;9776;50.798;6.430;2023-03-14T02:26:31;97792.06;;;10.49;68.51
19286;BME280;9776;50.798;6.430;2023-03-14T02:29:03;97790.03;;;10.51;68.20
19286;BME280;9776;50.798;6.430;2023-03-14T02:31:30;97793.88;;;10.55;68.14
19286;BME280;9776;50.798;6.430;2023-03-14T02:33:58;97782.09;;;10.57;68.25
19286;BME280;9776;50.798;6.430;2023-03-14T02:36:25;97769.13;;;10.56;68.15
19286;BME280;9776;50.798;6.430;2023-03-14T02:38:58;97772.34;;;10.58;67.93
19286;BME280;9776;50.798;6.430;2023-03-14T02:41:28;97772.34;;;10.58;68.12
19286;BME280;9776;50.798;6.430;2023-03-14T02:43:55;97772.13;;;10.59;68.20
19286;BME280;9776;50.798;6.430;2023-03-14T02:46:23;97760.13;;;10.63;68.00
19286;BME280;9776;50.798;6.430;2023-03-14T02:48:53;97754.84;;;10.70;67.77
19286;BME280;9776;50.798;6.430;2023-03-14T02:51:21;97741.41;;;10.71;67.81
19286;BME280;9776;50.798;6.430;2023-03-14T02:53:49;97739.19;;;10.68;67.85
19286;BME280;9776;50.798;6.430;2023-03-14T02:56:15;97743.06;;;10.66;67.96
19286;BME280;9776;50.798;6.430;2023-03-14T02:58:42;97752.00;;;10.65;67.85
19286;BME280;9776;50.798;6.430;2023-03-14T03:01:08;97745.88;;;10.71;67.76
19286;BME280;9776;50.798;6.430;2023-03-14T03:03:36;97757.22;;;10.78;67.60
19286;BME280;9776;50.798;6.430;2023-03-14T03:06:03;97743.00;;;10.79;67.75
19286;BME280;9776;50.798;6.430;2023-03-14T03:08:31;97738.78;;;10.71;67.88
19286;BME280;9776;50.798;6.430;2023-03-14T03:10:58;97729.69;;;10.67;68.24
19286;BME280;9776;50.798;6.430;2023-03-14T03:13:24;97733.53;;;10.65;68.13
19286;BME280;9776;50.798;6.430;2023-03-14T03:15:52;97731.34;;;10.62;68.50
19286;BME280;9776;50.798;6.430;2023-03-14T03:18:18;97724.03;;;10.64;68.61
19286;BME280;9776;50.798;6.430;2023-03-14T03:20:46;97724.84;;;10.64;68.51
19286;BME280;9776;50.798;6.430;2023-03-14T03:23:13;97721.59;;;10.62;68.33
19286;BME280;9776;50.798;6.430;2023-03-14T03:25:40;97718.38;;;10.60;68.81
19286;BME280;9776;50.798;6.430;2023-03-14T03:28:06;97735.44;;;10.58;68.66
19286;BME280;9776;50.798;6.430;2023-03-14T03:30:37;97725.06;;;10.56;68.81
19286;BME280;9776;50.798;6.430;2023-03-14T03:33:04;97725.25;;;10.61;68.73
19286;BME280;9776;50.798;6.430;2023-03-14T03:35:32;97744.72;;;10.67;68.78
19286;BME280;9776;50.798;6.430;2023-03-14T03:38:00;97736.94;;;10.72;68.45
19286;BME280;9776;50.798;6.430;2023-03-14T03:40:27;97740.78;;;10.76;68.67
19286;BME280;9776;50.798;6.430;2023-03-14T03:42:53;97736.94;;;10.72;68.78
19286;BME280;9776;50.798;6.430;2023-03-14T03:45:20;97735.63;;;10.56;69.21
19286;BME280;9776;50.798;6.430;2023-03-14T03:47:46;97732.69;;;10.40;69.93
19286;BME280;9776;50.798;6.430;2023-03-14T03:50:13;97725.25;;;10.30;70.24
19286;BME280;9776;50.798;6.430;2023-03-14T03:52:40;97725.88;;;10.25;70.83
19286;BME280;9776;50.798;6.430;2023-03-14T03:55:08;97728.72;;;10.24;70.96
19286;BME280;9776;50.798;6.430;2023-03-14T03:57:35;97716.97;;;10.20;71.25
19286;BME280;9776;50.798;6.430;2023-03-14T04:00:03;97730.38;;;10.18;71.28
19286;BME280;9776;50.798;6.430;2023-03-14T04:02:30;97726.13;;;10.17;71.39
19286;BME280;9776;50.798;6.430;2023-03-14T04:04:59;97719.59;;;10.20;71.48
19286;BME280;9776;50.798;6.430;2023-03-14T04:07:26;97725.09;;;10.18;71.74
19286;BME280;9776;50.798;6.430;2023-03-14T04:09:53;97719.44;;;10.15;71.76
19286;BME280;9776;50.798;6.430;2023-03-14T04:12:21;97725.88;;;10.19;71.92
19286;BME280;9776;50.798;6.430;2023-03-14T04:14:47;97721.44;;;10.19;71.90
19286;BME280;9776;50.798;6.430;2023-03-14T04:17:14;97712.72;;;10.19;72.04
19286;BME280;9776;50.798;6.430;2023-03-14T04:19:41;97705.22;;;10.16;72.01
19286;BME280;9776;50.798;6.430;2023-03-14T04:22:07;97713.34;;;10.14;72.00
19286;BME280;9776;50.798;6.430;2023-03-14T04:24:34;97704.22;;;10.10;72.31
19286;BME280;9776;50.798;6.430;2023-03-14T04:27:01;97703.63;;;10.08;72.34
19286;BME280;9776;50.798;6.430;2023-03-14T04:29:29;97700.78;;;10.10;72.29
19286;BME280;9776;50.798;6.430;2023-03-14T04:31:56;97706.84;;;10.10;72.37
19286;BME280;9776;50.798;6.430;2023-03-14T04:34:22;97702.81;;;10.08;72.32
19286;BME280;9776;50.798;6.430;2023-03-14T04:36:49;97703.19;;;10.11;72.33
19286;BME280;9776;50.798;6.430;2023-03-14T04:39:16;97705.84;;;10.18;72.04
19286;BME280;9776;50.798;6.430;2023-03-14T04:41:44;97711.06;;;10.24;71.99
19286;BME280;9776;50.798;6.430;2023-03-14T04:44:10;97702.72;;;10.27;72.04
19286;BME280;9776;50.798;6.430;2023-03-14T04:46:38;97683.66;;;10.32;71.90
19286;BME280;9776;50.798;6.430;2023-03-14T04:49:05;97691.19;;;10.29;71.86
19286;BME280;9776;50.798;6.430;2023-03-14T04:51:31;97686.91;;;10.27;71.81
19286;BME280;9776;50.798;6.430;2023-03-14T04:53:58;97694.22;;;10.25;71.91
19286;BME280;9776;50.798;6.430;2023-03-14T04:56:25;97693.81;;;10.29;71.79
19286;BME280;9776;50.798;6.430;2023-03-14T04:58:52;97677.56;;;10.32;71.47
19286;BME280;9776;50.798;6.430;2023-03-14T05:01:19;97663.38;;;10.33;71.44
19286;BME280;9776;50.798;6.430;2023-03-14T05:03:47;97678.59;;;10.31;71.27
19286;BME280;9776;50.798;6.430;2023-03-14T05:06:14;97658.97;;;10.27;71.50
19286;BME280;9776;50.798;6.430;2023-03-14T05:08:40;97659.78;;;10.27;71.17
19286;BME280;9776;50.798;6.430;2023-03-14T05:11:10;97653.47;;;10.28;71.23
19286;BME280;9776;50.798;6.430;2023-03-14T05:13:37;97652.44;;;10.29;71.08
19286;BME280;9776;50.798;6.430;2023-03-14T05:16:05;97662.19;;;10.29;71.07
19286;BME280;9776;50.798;6.430;2023-03-14T05:18:32;97660.75;;;10.33;70.97
19286;BME280;9776;50.798;6.430;2023-03-14T05:21:00;97664.97;;;10.34;71.01
19286;BME280;9776;50.798;6.430;2023-03-14T05:23:26;97666.59;;;10.35;70.88
19286;BME280;9776;50.798;6.430;2023-03-14T05:25:53;97662.72;;;10.37;70.90
19286;BME280;9776;50.798;6.430;2023-03-14T05:28:20;97668.59;;;10.39;71.01
19286;BME280;9776;50.798;6.430;2023-03-14T05:30:47;97668.41;;;10.41;70.80
19286;BME280;9776;50.798;6.430;2023-03-14T05:33:13;97660.09;;;10.37;70.91
19286;BME280;9776;50.798;6.430;2023-03-14T05:35:41;97668.00;;;10.37;71.04
19286;BME280;9776;50.798;6.430;2023-03-14T05:38:09;97660.91;;;10.38;71.20
19286;BME280;9776;50.798;6.430;2023-03-14T05:40:36;97658.47;;;10.36;71.04
19286;BME280;9776;50.798;6.430;2023-03-14T05:43:03;97651.19;;;10.38;71.06
19286;BME280;9776;50.798;6.430;2023-03-14T05:45:29;97667.81;;;10.39;71.07
19286;BME280;9776;50.798;6.430;2023-03-14T05:47:56;97650.38;;;10.38;70.88
19286;BME280;9776;50.798;6.430;2023-03-14T05:50:23;97645.53;;;10.35;71.21
19286;BME280;9776;50.798;6.430;2023-03-14T05:52:49;97654.84;;;10.31;71.11
19286;BME280;9776;50.798;6.430;2023-03-14T05:55:17;97650.78;;;10.35;71.19
19286;BME280;9776;50.798;6.430;2023-03-14T05:57:44;97650.19;;;10.33;71.17
19286;BME280;9776;50.798;6.430;2023-03-14T06:00:11;97651.22;;;10.32;71.34
19286;BME280;9776;50.798;6.430;2023-03-14T06:02:38;97646.38;;;10.29;71.46
19286;BME280;9776;50.798;6.430;2023-03-14T06:05:06;97648.41;;;10.27;71.29
19286;BME280;9776;50.798;6.430;2023-03-14T06:07:33;97645.97;;;10.25;71.27
19286;BME280;9776;50.798;6.430;2023-03-14T06:10:00;97638.47;;;10.29;71.30
19286;BME280;9776;50.798;6.430;2023-03-14T06:12:28;97639.66;;;10.33;71.46
19286;BME280;9776;50.798;6.430;2023-03-14T06:14:54;97639.81;;;10.38;71.34
19286;BME280;9776;50.798;6.430;2023-03-14T06:17:21;97645.06;;;10.44;71.22
19286;BME280;9776;50.798;6.430;2023-03-14T06:19:48;97637.31;;;10.49;71.03
19286;BME280;9776;50.798;6.430;2023-03-14T06:22:14;97639.72;;;10.51;71.05
19286;BME280;9776;50.798;6.430;2023-03-14T06:24:41;97643.78;;;10.53;70.95
19286;BME280;9776;50.798;6.430;2023-03-14T06:27:07;97643.13;;;10.58;70.97
19286;BME280;9776;50.798;6.430;2023-03-14T06:29:35;97645.72;;;10.64;71.03
19286;BME280;9776;50.798;6.430;2023-03-14T06:32:02;97635.09;;;10.71;70.89
19286;BME280;9776;50.798;6.430;2023-03-14T06:34:30;97643.38;;;10.74;70.86
19286;BME280;9776;50.798;6.430;2023-03-14T06:36:57;97650.06;;;10.77;70.91
19286;BME280;9776;50.798;6.430;2023-03-14T06:39:23;97651.88;;;10.76;70.89
19286;BME280;9776;50.798;6.430;2023-03-14T06:41:50;97651.47;;;10.79;70.99
19286;BME280;9776;50.798;6.430;2023-03-14T06:44:17;97646.72;;;10.88;70.80
19286;BME280;9776;50.798;6.430;2023-03-14T06:46:45;97648.28;;;10.96;70.89
19286;BME280;9776;50.798;6.430;2023-03-14T06:49:12;97655.09;;;11.03;70.64
19286;BME280;9776;50.798;6.430;2023-03-14T06:51:38;97653.94;;;10.99;70.76
19286;BME280;9776;50.798;6.430;2023-03-14T06:54:05;97658.63;;;10.97;70.97
19286;BME280;9776;50.798;6.430;2023-03-14T06:56:32;97651.75;;;10.96;71.08
19286;BME280;9776;50.798;6.430;2023-03-14T06:58:58;97648.13;;;10.91;71.37
19286;BME280;9776;50.798;6.430;2023-03-14T07:01:27;97643.88;;;10.90;71.38
19286;BME280;9776;50.798;6.430;2023-03-14T07:03:56;97646.72;;;10.88;71.34
19286;BME280;9776;50.798;6.430;2023-03-14T07:06:23;97645.56;;;10.84;71.54
19286;BME280;9776;50.798;6.430;2023-03-14T07:08:50;97656.91;;;10.85;71.60
19286;BME280;9776;50.798;6.430;2023-03-14T07:11:17;97644.25;;;10.93;71.40
19286;BME280;9776;50.798;6.430;2023-03-14T07:13:43;97660.25;;;10.98;71.43
19286;BME280;9776;50.798;6.430;2023-03-14T07:16:10;97666.16;;;11.18;70.96
19286;BME280;9776;50.798;6.430;2023-03-14T07:18:36;97667.03;;;11.30;70.67
19286;BME280;9776;50.798;6.430;2023-03-14T07:21:05;97677.91;;;11.40;70.62
19286;BME280;9776;50.798;6.430;2023-03-14T07:23:32;97675.34;;;11.52;70.43
19286;BME280;9776;50.798;6.430;2023-03-14T07:25:59;97678.38;;;11.74;69.96
19286;BME280;9776;50.798;6.430;2023-03-14T07:28:25;97680.72;;;12.00;69.75
19286;BME280;9776;50.798;6.430;2023-03-14T07:30:53;97676.81;;;12.32;69.05
19286;BME280;9776;50.798;6.430;2023-03-14T07:33:19;97681.09;;;12.45;68.60
19286;BME280;9776;50.798;6.430;2023-03-14T07:35:46;97680.31;;;12.44;68.52
19286;BME280;9776;50.798;6.430;2023-03-14T07:38:15;97683.78;;;12.57;68.65
19286;BME280;9776;50.798;6.430;2023-03-14T07:40:41;97701.06;;;12.71;68.19
19286;BME280;9776;50.798;6.430;2023-03-14T07:43:08;97698.69;;;12.81;67.76
19286;BME280;9776;50.798;6.430;2023-03-14T07:45:35;97705.72;;;12.75;67.95
19286;BME280;9776;50.798;6.430;2023-03-14T07:48:01;97699.13;;;12.66;68.01
19286;BME280;9776;50.798;6.430;2023-03-14T07:50:28;97704.22;;;12.79;67.79
19286;BME280;9776;50.798;6.430;2023-03-14T07:52:55;97691.44;;;12.88;67.45
19286;BME280;9776;50.798;6.430;2023-03-14T07:55:23;97711.97;;;12.92;67.20
19286;BME280;9776;50.798;6.430;2023-03-14T07:57:49;97702.50;;;12.96;67.28
19286;BME280;9776;50.798;6.430;2023-03-14T08:00:17;97709.25;;;13.22;66.44
19286;BME280;9776;50.798;6.430;2023-03-14T08:02:43;97709.38;;;13.39;66.12
19286;BME280;9776;50.798;6.430;2023-03-14T08:05:10;97709.38;;;13.62;65.21
19286;BME280;9776;50.798;6.430;2023-03-14T08:07:37;97719.47;;;13.53;65.38
19286;BME280;9776;50.798;6.430;2023-03-14T08:10:04;97714.44;;;13.40;66.04
19286;BME280;9776;50.798;6.430;2023-03-14T08:12:32;97715.69;;;13.26;66.03
19286;BME280;9776;50.798;6.430;2023-03-14T08:14:59;97726.41;;;13.20;66.43
19286;BME280;9776;50.798;6.430;2023-03-14T08:17:26;97714.41;;;13.17;66.41
19286;BME280;9776;50.798;6.430;2023-03-14T08:19:53;97725.47;;;13.26;65.91
19286;BME280;9776;50.798;6.430;2023-03-14T08:22:19;97733.22;;;13.16;66.27
19286;BME280;9776;50.798;6.430;2023-03-14T08:24:46;97734.63;;;12.88;66.80
19286;BME280;9776;50.798;6.430;2023-03-14T08:27:13;97729.63;;;12.69;67.34
19286;BME280;9776;50.798;6.430;2023-03-14T08:29:41;97739.91;;;12.59;67.80
19286;BME280;9776;50.798;6.430;2023-03-14T08:32:08;97752.56;;;12.57;68.13
19286;BME280;9776;50.798;6.430;2023-03-14T08:34:35;97744.66;;;12.57;68.36
19286;BME280;9776;50.798;6.430;2023-03-14T08:37:02;97754.09;;;12.64;68.01
19286;BME280;9776;50.798;6.430;2023-03-14T08:39:29;97752.03;;;12.66;67.96
19286;BME280;9776;50.798;6.430;2023-03-14T08:41:56;97749.31;;;12.84;67.86
19286;BME280;9776;50.798;6.430;2023-03-14T08:44:23;97759.28;;;13.00;67.46
19286;BME280;9776;50.798;6.430;2023-03-14T08:46:51;97758.97;;;13.08;67.29
19286;BME280;9776;50.798;6.430;2023-03-14T08:49:17;97764.75;;;13.17;67.16
19286;BME280;9776;50.798;6.430;2023-03-14T08:51:44;97769.38;;;13.22;67.23
19286;BME280;9776;50.798;6.430;2023-03-14T08:54:10;97763.94;;;13.17;67.40
19286;BME280;9776;50.798;6.430;2023-03-14T08:56:37;97773.94;;;13.15;67.35
19286;BME280;9776;50.798;6.430;2023-03-14T08:59:04;97773.03;;;13.09;67.79
19286;BME280;9776;50.798;6.430;2023-03-14T09:01:31;97775.66;;;13.09;67.63
19286;BME280;9776;50.798;6.430;2023-03-14T09:03:59;97763.31;;;13.03;68.02
19286;BME280;9776;50.798;6.430;2023-03-14T09:06:26;97781.34;;;12.94;68.47
19286;BME280;9776;50.798;6.430;2023-03-14T09:08:52;97845.22;;;12.86;68.55
19286;BME280;9776;50.798;6.430;2023-03-14T09:11:19;97877.09;;;12.43;69.64
19286;BME280;9776;50.798;6.430;2023-03-14T09:13:46;97877.81;;;11.89;70.61
19286;BME280;9776;50.798;6.430;2023-03-14T09:16:13;97892.78;;;11.46;71.19
19286;BME280;9776;50.798;6.430;2023-03-14T09:18:40;97908.59;;;11.21;71.08
19286;BME280;9776;50.798;6.430;2023-03-14T09:21:08;97908.63;;;11.15;70.60
19286;BME280;9776;50.798;6.430;2023-03-14T09:23:35;97929.19;;;11.00;70.38
19286;BME280;9776;50.798;6.430;2023-03-14T09:26:01;97947.94;;;10.85;69.96
19286;BME280;9776;50.798;6.430;2023-03-14T09:28:28;97961.16;;;10.78;69.76
19286;BME280;9776;50.798;6.430;2023-03-14T09:30:55;97970.56;;;10.55;70.05
19286;BME280;9776;50.798;6.430;2023-03-14T09:33:23;97993.50;;;10.41;70.28
19286;BME280;9776;50.798;6.430;2023-03-14T09:35:50;97992.88;;;10.39;70.01
19286;BME280;9776;50.798;6.430;2023-03-14T09:38:18;98015.22;;;10.30;70.04
19286;BME280;9776;50.798;6.430;2023-03-14T09:40:46;98031.84;;;10.24;69.95
19286;BME280;9776;50.798;6.430;2023-03-14T09:43:14;98039.53;;;10.19;69.91
19286;BME280;9776;50.798;6.430;2023-03-14T09:45:42;98049.44;;;10.10;69.90
19286;BME280;9776;50.798;6.430;2023-03-14T09:48:15;98060.78;;;10.04;70.20
19286;BME280;9776;50.798;6.430;2023-03-14T09:50:45;98064.25;;;9.98;70.38
19286;BME280;9776;50.798;6.430;2023-03-14T09:53:15;98080.63;;;9.94;70.33
19286;BME280;9776;50.798;6.430;2023-03-14T09:55:45;98101.34;;;10.03;69.87
19286;BME280;9776;50.798;6.430;2023-03-14T09:58:16;98098.09;;;10.01;70.16
19286;BME280;9776;50.798;6.430;2023-03-14T10:00:44;98107.00;;;10.00;69.80
19286;BME280;9776;50.798;6.430;2023-03-14T10:03:24;98108.00;;;9.93;69.77
19286;BME280;9776;50.798;6.430;2023-03-14T10:05:51;98110.22;;;9.89;69.82
19286;BME280;9776;50.798;6.430;2023-03-14T10:08:18;98117.28;;;9.82;69.96
19286;BME280;9776;50.798;6.430;2023-03-14T10:10:46;98127.03;;;9.88;69.73
19286;BME280;9776;50.798;6.430;2023-03-14T10:13:16;98124.03;;;9.98;69.34
19286;BME280;9776;50.798;6.430;2023-03-14T10:15:48;98142.91;;;10.01;69.14
19286;BME280;9776;50.798;6.430;2023-03-14T10:18:15;98158.06;;;9.99;69.17
19286;BME280;9776;50.798;6.430;2023-03-14T10:20:43;98170.66;;;9.97;69.28
19286;BME280;9776;50.798;6.430;2023-03-14T10:23:23;98181.38;;;9.89;69.23
19286;BME280;9776;50.798;6.430;2023-03-14T10:26:05;98194.72;;;9.88;69.25
19286;BME280;9776;50.798;6.430;2023-03-14T10:28:34;98191.31;;;9.94;69.25
19286;BME280;9776;50.798;6.430;2023-03-14T10:31:04;98202.78;;;10.20;69.09
19286;BME280;9776;50.798;6.430;2023-03-14T10:33:32;98206.91;;;10.49;68.19
19286;BME280;9776;50.798;6.430;2023-03-14T10:36:00;98216.25;;;10.71;67.80
19286;BME280;9776;50.798;6.430;2023-03-14T10:38:30;98207.34;;;10.92;67.35
19286;BME280;9776;50.798;6.430;2023-03-14T10:40:59;98218.53;;;11.07;67.25
19286;BME280;9776;50.798;6.430;2023-03-14T10:43:27;98211.94;;;12.26;64.67
19286;BME280;9776;50.798;6.430;2023-03-14T10:45:58;98212.00;;;13.07;62.04
19286;BME280;9776;50.798;6.430;2023-03-14T10:48:31;98219.28;;;12.87;62.13
19286;BME280;9776;50.798;6.430;2023-03-14T10:51:03;98234.81;;;12.77;62.38
19286;BME280;9776;50.798;6.430;2023-03-14T10:53:39;98248.44;;;13.05;61.71
19286;BME280;9776;50.798;6.430;2023-03-14T10:56:10;98264.78;;;12.71;62.40
19286;BME280;9776;50.798;6.430;2023-03-14T10:58:40;98264.09;;;12.44;63.44
19286;BME280;9776;50.798;6.430;2023-03-14T11:01:29;98287.72;;;11.94;64.18
19286;BME280;9776;50.798;6.430;2023-03-14T11:04:03;98288.13;;;11.85;64.55
19286;BME280;9776;50.798;6.430;2023-03-14T11:06:36;98284.44;;;11.99;64.40
19286;BME280;9776;50.798;6.430;2023-03-14T11:09:12;98309.66;;;11.95;64.08
19286;BME280;9776;50.798;6.430;2023-03-14T11:11:46;98318.44;;;11.76;64.57
19286;BME280;9776;50.798;6.430;2023-03-14T11:14:20;98322.31;;;11.27;65.31
19286;BME280;9776;50.798;6.430;2023-03-14T11:16:53;98330.72;;;10.77;65.88
19286;BME280;9776;50.798;6.430;2023-03-14T11:19:32;98341.13;;;10.31;67.13
19286;BME280;9776;50.798;6.430;2023-03-14T11:22:11;98353.03;;;10.20;67.29
19286;BME280;9776;50.798;6.430;2023-03-14T11:24:49;98355.78;;;10.40;66.98
19286;BME280;9776;50.798;6.430;2023-03-14T11:27:21;98352.88;;;10.82;66.04
19286;BME280;9776;50.798;6.430;2023-03-14T11:29:55;98358.22;;;11.15;64.83
19286;BME280;9776;50.798;6.430;2023-03-14T11:32:35;98362.50;;;11.29;64.12
19286;BME280;9776;50.798;6.430;2023-03-14T11:35:04;98364.97;;;11.57;63.61
19286;BME280;9776;50.798;6.430;2023-03-14T11:37:40;98363.16;;;12.99;60.35
19286;BME280;9776;50.798;6.430;2023-03-14T11:40:14;98371.16;;;13.61;58.61
19286;BME280;9776;50.798;6.430;2023-03-14T11:42:49;98382.84;;;13.79;58.05
19286;BME280;9776;50.798;6.430;2023-03-14T11:45:19;98390.72;;;13.60;58.34
19286;BME280;9776;50.798;6.430;2023-03-14T11:47:53;98390.50;;;13.31;59.07
19286;BME280;9776;50.798;6.430;2023-03-14T11:50:24;98397.78;;;13.04;59.60
19286;BME280;9776;50.798;6.430;2023-03-14T11:52:54;98421.84;;;12.45;60.30
19286;BME280;9776;50.798;6.430;2023-03-14T11:55:25;98473.50;;;11.69;61.44
19286;BME280;9776;50.798;6.430;2023-03-14T11:58:02;98488.13;;;10.57;63.03
19286;BME280;9776;50.798;6.430;2023-03-14T12:00:30;98491.63;;;9.45;64.82
19286;BME280;9776;50.798;6.430;2023-03-14T12:03:01;98507.28;;;8.81;66.08
19286;BME280;9776;50.798;6.430;2023-03-14T12:05:56;98514.63;;;8.42;67.13
19286;BME280;9776;50.798;6.430;2023-03-14T12:08:44;98523.13;;;8.44;67.30
19286;BME280;9776;50.798;6.430;2023-03-14T12:11:17;98519.69;;;8.58;67.29
19286;BME280;9776;50.798;6.430;2023-03-14T12:13:49;98536.22;;;8.67;67.24
19286;BME280;9776;50.798;6.430;2023-03-14T12:16:35;98541.38;;;8.60;67.15
19286;BME280;9776;50.798;6.430;2023-03-14T12:19:26;98547.00;;;8.57;67.32
19286;BME280;9776;50.798;6.430;2023-03-14T12:21:55;98566.88;;;8.60;67.73
19286;BME280;9776;50.798;6.430;2023-03-14T12:24:27;98572.03;;;8.68;67.62
19286;BME280;9776;50.798;6.430;2023-03-14T12:26:57;98580.75;;;8.83;67.47
19286;BME280;9776;50.798;6.430;2023-03-14T12:29:25;98579.66;;;9.06;66.89
19286;BME280;9776;50.798;6.430;2023-03-14T12:32:23;98590.84;;;9.08;66.91
19286;BME280;9776;50.798;6.430;2023-03-14T12:34:50;98594.34;;;9.30;66.77
19286;BME280;9776;50.798;6.430;2023-03-14T12:37:22;98601.78;;;9.41;66.62
19286;BME280;9776;50.798;6.430;2023-03-14T12:40:06;98607.34;;;9.32;66.81
19286;BME280;9776;50.798;6.430;2023-03-14T12:42:45;98613.34;;;9.26;66.93
19286;BME280;9776;50.798;6.430;2023-03-14T12:45:27;98622.31;;;9.31;66.84
19286;BME280;9776;50.798;6.430;2023-03-14T12:48:00;98624.28;;;9.44;66.74
19286;BME280;9776;50.798;6.430;2023-03-14T12:50:36;98636.19;;;9.40;66.93
19286;BME280;9776;50.798;6.430;2023-03-14T12:53:43;98638.63;;;9.41;66.79
19286;BME280;9776;50.798;6.430;2023-03-14T12:56:26;98643.91;;;9.41;66.80
19286;BME280;9776;50.798;6.430;2023-03-14T13:01:47;98660.72;;;9.26;66.56
19286;BME280;9776;50.798;6.430;2023-03-14T13:04:14;98667.34;;;9.36;66.38
19286;BME280;9776;50.798;6.430;2023-03-14T13:06:47;98664.59;;;9.44;65.74
19286;BME280;9776;50.798;6.430;2023-03-14T13:12:27;98690.75;;;9.46;65.31
19286;BME280;9776;50.798;6.430;2023-03-14T13:14:57;98702.19;;;9.38;65.43
19286;BME280;9776;50.798;6.430;2023-03-14T13:17:27;98708.63;;;9.36;65.31
19286;BME280;9776;50.798;6.430;2023-03-14T13:19:56;98716.53;;;9.36;65.28
19286;BME280;9776;50.798;6.430;2023-03-14T13:22:27;98725.97;;;9.30;65.44
19286;BME280;9776;50.798;6.430;2023-03-14T13:24:59;98726.34;;;9.27;65.44
19286;BME280;9776;50.798;6.430;2023-03-14T13:27:30;98734.06;;;9.29;65.28